sensor_id;sensor_type;location;lat;lon;timestamp;P1;durP1;ratioP1;P2;durP2;ratioP2
2860;SDS011;1438;50.922;6.704;2023-09-19T00:01:05;12.87;;;2.57;;
2860;SDS011;1438;50.922;6.704;2023-09-19T00:03:34;2.83;;;1.80;;
2860;SDS011;1438;50.922;6.704;2023-09-19T00:06:03;5.70;;;2.10;;
2860;SDS011;1438;50.922;6.704;2023-09-19T00:08:30;7.20;;;2.00;;
2860;SDS011;1438;50.922;6.704;2023-09-19T00:10:56;5.43;;;1.93;;
2860;SDS011;1438;50.922;6.704;2023-09-19T00:13:30;9.90;;;2.40;;
2860;SDS011;1438;50.922;6.704;2023-09-19T00:15:56;6.27;;;2.00;;
2860;SDS011;1438;50.922;6.704;2023-09-19T00:18:24;5.50;;;2.00;;
2860;SDS011;1438;50.922;6.704;2023-09-19T00:20:56;4.43;;;2.50;;
2860;SDS011;1438;50.922;6.704;2023-09-19T00:23:22;9.80;;;2.70;;
2860;SDS011;1438;50.922;6.704;2023-09-19T00:25:49;10.30;;;2.17;;
2860;SDS011;1438;50.922;6.704;2023-09-19T00:28:16;6.63;;;2.00;;
2860;SDS011;1438;50.922;6.704;2023-09-19T00:30:43;6.53;;;2.50;;
2860;SDS011;1438;50.922;6.704;2023-09-19T00:33:09;6.37;;;3.37;;
2860;SDS011;1438;50.922;6.704;2023-09-19T00:35:46;7.70;;;2.30;;
2860;SDS011;1438;50.922;6.704;2023-09-19T00:38:15;6.07;;;2.33;;
2860;SDS011;1438;50.922;6.704;2023-09-19T00:40:45;6.70;;;2.10;;
2860;SDS011;1438;50.922;6.704;2023-09-19T00:43:11;7.90;;;2.60;;
2860;SDS011;1438;50.922;6.704;2023-09-19T00:45:37;9.47;;;2.27;;
2860;SDS011;1438;50.922;6.704;2023-09-19T00:48:07;6.67;;;2.63;;
2860;SDS011;1438;50.922;6.704;2023-09-19T00:50:34;5.50;;;2.70;;
2860;SDS011;1438;50.922;6.704;2023-09-19T00:53:00;8.43;;;2.23;;
2860;SDS011;1438;50.922;6.704;2023-09-19T00:55:26;5.43;;;2.10;;
2860;SDS011;1438;50.922;6.704;2023-09-19T00:57:55;11.87;;;2.60;;
2860;SDS011;1438;50.922;6.704;2023-09-19T01:00:21;6.73;;;2.43;;
2860;SDS011;1438;50.922;6.704;2023-09-19T01:02:48;5.43;;;2.40;;
2860;SDS011;1438;50.922;6.704;2023-09-19T01:05:14;8.10;;;2.80;;
2860;SDS011;1438;50.922;6.704;2023-09-19T01:07:40;9.57;;;2.90;;
2860;SDS011;1438;50.922;6.704;2023-09-19T01:10:06;7.80;;;1.93;;
2860;SDS011;1438;50.922;6.704;2023-09-19T01:21:19;6.40;;;2.30;;
2860;SDS011;1438;50.922;6.704;2023-09-19T01:30:14;3.63;;;2.03;;
2860;SDS011;1438;50.922;6.704;2023-09-19T01:32:47;8.00;;;2.57;;
2860;SDS011;1438;50.922;6.704;2023-09-19T01:35:17;10.53;;;2.13;;
2860;SDS011;1438;50.922;6.704;2023-09-19T01:37:43;6.27;;;2.27;;
2860;SDS011;1438;50.922;6.704;2023-09-19T01:40:10;6.30;;;2.20;;
2860;SDS011;1438;50.922;6.704;2023-09-19T01:42:45;3.90;;;1.73;;
2860;SDS011;1438;50.922;6.704;2023-09-19T01:50:50;5.50;;;2.17;;
2860;SDS011;1438;50.922;6.704;2023-09-19T01:56:23;10.60;;;2.70;;
2860;SDS011;1438;50.922;6.704;2023-09-19T01:58:56;9.17;;;2.50;;
2860;SDS011;1438;50.922;6.704;2023-09-19T02:01:29;9.23;;;2.33;;
2860;SDS011;1438;50.922;6.704;2023-09-19T02:03:55;5.03;;;2.10;;
2860;SDS011;1438;50.922;6.704;2023-09-19T02:06:21;11.00;;;2.30;;
2860;SDS011;1438;50.922;6.704;2023-09-19T02:08:47;10.20;;;2.17;;
2860;SDS011;1438;50.922;6.704;2023-09-19T02:11:12;12.23;;;3.13;;
2860;SDS011;1438;50.922;6.704;2023-09-19T02:13:38;7.93;;;2.50;;
2860;SDS011;1438;50.922;6.704;2023-09-19T02:16:05;6.00;;;2.10;;
2860;SDS011;1438;50.922;6.704;2023-09-19T02:18:34;4.60;;;1.73;;
2860;SDS011;1438;50.922;6.704;2023-09-19T02:21:02;4.37;;;1.80;;
2860;SDS011;1438;50.922;6.704;2023-09-19T02:23:29;12.10;;;3.00;;
2860;SDS011;1438;50.922;6.704;2023-09-19T02:25:55;10.17;;;3.20;;
2860;SDS011;1438;50.922;6.704;2023-09-19T02:28:28;9.43;;;2.20;;
2860;SDS011;1438;50.922;6.704;2023-09-19T02:30:57;8.23;;;2.10;;
2860;SDS011;1438;50.922;6.704;2023-09-19T02:33:24;6.27;;;2.10;;
2860;SDS011;1438;50.922;6.704;2023-09-19T02:35:49;9.37;;;1.70;;
2860;SDS011;1438;50.922;6.704;2023-09-19T02:38:19;9.63;;;2.43;;
2860;SDS011;1438;50.922;6.704;2023-09-19T02:40:49;13.33;;;2.93;;
2860;SDS011;1438;50.922;6.704;2023-09-19T02:43:15;8.90;;;2.40;;
2860;SDS011;1438;50.922;6.704;2023-09-19T02:45:42;9.50;;;2.70;;
2860;SDS011;1438;50.922;6.704;2023-09-19T02:48:07;11.03;;;3.00;;
2860;SDS011;1438;50.922;6.704;2023-09-19T02:50:33;6.93;;;2.07;;
2860;SDS011;1438;50.922;6.704;2023-09-19T02:52:59;8.37;;;2.67;;
2860;SDS011;1438;50.922;6.704;2023-09-19T02:55:24;5.10;;;1.77;;
2860;SDS011;1438;50.922;6.704;2023-09-19T02:57:51;9.00;;;2.77;;
2860;SDS011;1438;50.922;6.704;2023-09-19T03:00:22;8.93;;;2.43;;
2860;SDS011;1438;50.922;6.704;2023-09-19T03:02:52;12.40;;;2.70;;
2860;SDS011;1438;50.922;6.704;2023-09-19T03:05:19;6.63;;;1.83;;
2860;SDS011;1438;50.922;6.704;2023-09-19T03:07:46;8.43;;;2.23;;
2860;SDS011;1438;50.922;6.704;2023-09-19T03:10:16;12.30;;;3.60;;
2860;SDS011;1438;50.922;6.704;2023-09-19T03:12:42;10.70;;;2.17;;
2860;SDS011;1438;50.922;6.704;2023-09-19T03:15:08;9.53;;;2.70;;
2860;SDS011;1438;50.922;6.704;2023-09-19T03:17:34;8.43;;;2.67;;
2860;SDS011;1438;50.922;6.704;2023-09-19T03:20:00;6.00;;;2.40;;
2860;SDS011;1438;50.922;6.704;2023-09-19T03:22:27;8.17;;;2.30;;
2860;SDS011;1438;50.922;6.704;2023-09-19T03:24:53;7.90;;;3.37;;
2860;SDS011;1438;50.922;6.704;2023-09-19T03:27:19;8.07;;;2.80;;
2860;SDS011;1438;50.922;6.704;2023-09-19T03:29:45;26.33;;;4.67;;
2860;SDS011;1438;50.922;6.704;2023-09-19T03:32:11;10.30;;;2.70;;
2860;SDS011;1438;50.922;6.704;2023-09-19T03:34:38;6.93;;;2.20;;
2860;SDS011;1438;50.922;6.704;2023-09-19T03:37:08;7.90;;;2.20;;
2860;SDS011;1438;50.922;6.704;2023-09-19T03:39:34;12.50;;;3.10;;
2860;SDS011;1438;50.922;6.704;2023-09-19T03:42:00;9.27;;;2.17;;
2860;SDS011;1438;50.922;6.704;2023-09-19T03:44:28;12.40;;;3.03;;
2860;SDS011;1438;50.922;6.704;2023-09-19T03:46:55;8.30;;;2.83;;
2860;SDS011;1438;50.922;6.704;2023-09-19T03:49:21;8.10;;;2.53;;
2860;SDS011;1438;50.922;6.704;2023-09-19T03:51:47;10.07;;;2.77;;
2860;SDS011;1438;50.922;6.704;2023-09-19T03:54:13;10.07;;;2.43;;
2860;SDS011;1438;50.922;6.704;2023-09-19T03:56:38;9.83;;;2.87;;
2860;SDS011;1438;50.922;6.704;2023-09-19T03:59:04;9.40;;;2.67;;
2860;SDS011;1438;50.922;6.704;2023-09-19T04:01:29;9.53;;;2.33;;
2860;SDS011;1438;50.922;6.704;2023-09-19T04:03:57;9.50;;;2.73;;
2860;SDS011;1438;50.922;6.704;2023-09-19T04:06:23;8.90;;;2.70;;
2860;SDS011;1438;50.922;6.704;2023-09-19T04:08:49;8.20;;;2.47;;
2860;SDS011;1438;50.922;6.704;2023-09-19T04:11:14;5.80;;;1.93;;
2860;SDS011;1438;50.922;6.704;2023-09-19T04:13:40;6.83;;;2.10;;
2860;SDS011;1438;50.922;6.704;2023-09-19T04:16:06;9.20;;;2.33;;
2860;SDS011;1438;50.922;6.704;2023-09-19T04:18:34;8.80;;;2.70;;
2860;SDS011;1438;50.922;6.704;2023-09-19T04:21:03;4.97;;;2.17;;
2860;SDS011;1438;50.922;6.704;2023-09-19T04:23:30;15.50;;;2.87;;
2860;SDS011;1438;50.922;6.704;2023-09-19T04:25:56;7.90;;;2.37;;
2860;SDS011;1438;50.922;6.704;2023-09-19T04:28:22;6.93;;;2.20;;
2860;SDS011;1438;50.922;6.704;2023-09-19T04:30:49;6.97;;;2.20;;
2860;SDS011;1438;50.922;6.704;2023-09-19T04:33:15;10.37;;;2.83;;
2860;SDS011;1438;50.922;6.704;2023-09-19T04:35:40;14.93;;;2.57;;
2860;SDS011;1438;50.922;6.704;2023-09-19T04:38:07;12.07;;;2.63;;
2860;SDS011;1438;50.922;6.704;2023-09-19T04:40:33;6.20;;;2.20;;
2860;SDS011;1438;50.922;6.704;2023-09-19T04:42:59;9.13;;;3.00;;
2860;SDS011;1438;50.922;6.704;2023-09-19T04:45:25;11.57;;;3.13;;
2860;SDS011;1438;50.922;6.704;2023-09-19T04:47:52;8.80;;;2.30;;
2860;SDS011;1438;50.922;6.704;2023-09-19T04:50:18;11.43;;;2.20;;
2860;SDS011;1438;50.922;6.704;2023-09-19T04:52:44;8.50;;;2.87;;
2860;SDS011;1438;50.922;6.704;2023-09-19T04:55:10;10.43;;;2.53;;
2860;SDS011;1438;50.922;6.704;2023-09-19T04:57:41;6.80;;;2.30;;
2860;SDS011;1438;50.922;6.704;2023-09-19T05:00:08;21.50;;;3.30;;
2860;SDS011;1438;50.922;6.704;2023-09-19T05:02:39;12.90;;;2.80;;
2860;SDS011;1438;50.922;6.704;2023-09-19T05:05:05;10.27;;;3.10;;
2860;SDS011;1438;50.922;6.704;2023-09-19T05:07:32;10.80;;;2.03;;
2860;SDS011;1438;50.922;6.704;2023-09-19T05:09:59;6.67;;;1.97;;
2860;SDS011;1438;50.922;6.704;2023-09-19T05:12:26;7.43;;;2.30;;
2860;SDS011;1438;50.922;6.704;2023-09-19T05:14:52;8.50;;;2.10;;
2860;SDS011;1438;50.922;6.704;2023-09-19T05:17:18;9.97;;;2.43;;
2860;SDS011;1438;50.922;6.704;2023-09-19T05:19:44;8.37;;;2.70;;
2860;SDS011;1438;50.922;6.704;2023-09-19T05:22:11;9.93;;;2.43;;
2860;SDS011;1438;50.922;6.704;2023-09-19T05:24:37;7.40;;;2.83;;
2860;SDS011;1438;50.922;6.704;2023-09-19T05:27:04;12.37;;;2.93;;
2860;SDS011;1438;50.922;6.704;2023-09-19T05:29:29;6.53;;;2.27;;
2860;SDS011;1438;50.922;6.704;2023-09-19T05:31:55;7.03;;;2.47;;
2860;SDS011;1438;50.922;6.704;2023-09-19T05:34:20;10.00;;;2.53;;
2860;SDS011;1438;50.922;6.704;2023-09-19T05:36:46;7.10;;;3.30;;
2860;SDS011;1438;50.922;6.704;2023-09-19T05:39:13;7.57;;;2.47;;
2860;SDS011;1438;50.922;6.704;2023-09-19T05:41:39;8.47;;;2.10;;
2860;SDS011;1438;50.922;6.704;2023-09-19T05:44:05;7.83;;;2.37;;
2860;SDS011;1438;50.922;6.704;2023-09-19T05:46:31;6.47;;;2.53;;
2860;SDS011;1438;50.922;6.704;2023-09-19T05:48:57;11.50;;;2.60;;
2860;SDS011;1438;50.922;6.704;2023-09-19T05:51:23;9.30;;;3.33;;
2860;SDS011;1438;50.922;6.704;2023-09-19T05:53:50;15.07;;;2.67;;
2860;SDS011;1438;50.922;6.704;2023-09-19T05:56:15;12.17;;;2.63;;
2860;SDS011;1438;50.922;6.704;2023-09-19T05:58:44;8.47;;;2.80;;
2860;SDS011;1438;50.922;6.704;2023-09-19T06:01:09;9.67;;;2.50;;
2860;SDS011;1438;50.922;6.704;2023-09-19T06:03:35;9.37;;;2.40;;
2860;SDS011;1438;50.922;6.704;2023-09-19T06:06:01;11.63;;;2.47;;
2860;SDS011;1438;50.922;6.704;2023-09-19T06:08:27;9.63;;;3.20;;
2860;SDS011;1438;50.922;6.704;2023-09-19T06:10:53;16.90;;;2.53;;
2860;SDS011;1438;50.922;6.704;2023-09-19T06:13:19;13.27;;;3.27;;
2860;SDS011;1438;50.922;6.704;2023-09-19T06:15:45;7.67;;;2.40;;
2860;SDS011;1438;50.922;6.704;2023-09-19T06:18:12;9.57;;;2.37;;
2860;SDS011;1438;50.922;6.704;2023-09-19T06:20:45;18.97;;;3.50;;
2860;SDS011;1438;50.922;6.704;2023-09-19T06:23:16;15.13;;;2.83;;
2860;SDS011;1438;50.922;6.704;2023-09-19T06:25:42;7.20;;;2.60;;
2860;SDS011;1438;50.922;6.704;2023-09-19T06:28:11;11.03;;;3.50;;
2860;SDS011;1438;50.922;6.704;2023-09-19T06:30:42;11.77;;;2.80;;
2860;SDS011;1438;50.922;6.704;2023-09-19T06:33:07;10.70;;;2.53;;
2860;SDS011;1438;50.922;6.704;2023-09-19T06:35:34;8.47;;;2.47;;
2860;SDS011;1438;50.922;6.704;2023-09-19T06:38:03;11.33;;;2.30;;
2860;SDS011;1438;50.922;6.704;2023-09-19T06:40:29;8.10;;;2.67;;
2860;SDS011;1438;50.922;6.704;2023-09-19T06:42:56;13.23;;;3.07;;
2860;SDS011;1438;50.922;6.704;2023-09-19T06:45:22;6.77;;;2.70;;
2860;SDS011;1438;50.922;6.704;2023-09-19T06:47:48;7.53;;;2.40;;
2860;SDS011;1438;50.922;6.704;2023-09-19T06:50:15;10.53;;;2.97;;
2860;SDS011;1438;50.922;6.704;2023-09-19T06:52:45;13.73;;;2.97;;
2860;SDS011;1438;50.922;6.704;2023-09-19T06:55:15;10.97;;;3.20;;
2860;SDS011;1438;50.922;6.704;2023-09-19T06:57:44;14.23;;;2.80;;
2860;SDS011;1438;50.922;6.704;2023-09-19T07:00:10;9.60;;;2.60;;
2860;SDS011;1438;50.922;6.704;2023-09-19T07:03:02;14.00;;;2.40;;
2860;SDS011;1438;50.922;6.704;2023-09-19T07:05:29;13.00;;;2.70;;
2860;SDS011;1438;50.922;6.704;2023-09-19T07:07:56;8.73;;;2.30;;
2860;SDS011;1438;50.922;6.704;2023-09-19T07:10:26;12.10;;;3.20;;
2860;SDS011;1438;50.922;6.704;2023-09-19T07:12:58;12.93;;;2.70;;
2860;SDS011;1438;50.922;6.704;2023-09-19T07:15:25;5.20;;;2.37;;
2860;SDS011;1438;50.922;6.704;2023-09-19T07:17:51;8.20;;;2.27;;
2860;SDS011;1438;50.922;6.704;2023-09-19T07:20:21;11.53;;;2.30;;
2860;SDS011;1438;50.922;6.704;2023-09-19T07:22:48;16.83;;;3.10;;
2860;SDS011;1438;50.922;6.704;2023-09-19T07:25:15;9.17;;;2.37;;
2860;SDS011;1438;50.922;6.704;2023-09-19T07:27:41;11.87;;;3.10;;
2860;SDS011;1438;50.922;6.704;2023-09-19T07:30:07;16.73;;;3.30;;
2860;SDS011;1438;50.922;6.704;2023-09-19T07:32:34;6.10;;;2.10;;
2860;SDS011;1438;50.922;6.704;2023-09-19T07:35:03;7.00;;;2.37;;
2860;SDS011;1438;50.922;6.704;2023-09-19T07:37:30;9.43;;;2.43;;
2860;SDS011;1438;50.922;6.704;2023-09-19T07:39:58;10.13;;;2.40;;
2860;SDS011;1438;50.922;6.704;2023-09-19T07:42:24;14.00;;;3.63;;
2860;SDS011;1438;50.922;6.704;2023-09-19T07:44:50;7.03;;;2.40;;
2860;SDS011;1438;50.922;6.704;2023-09-19T07:47:16;6.20;;;2.60;;
2860;SDS011;1438;50.922;6.704;2023-09-19T07:49:42;10.90;;;2.93;;
2860;SDS011;1438;50.922;6.704;2023-09-19T07:52:13;8.10;;;2.40;;
2860;SDS011;1438;50.922;6.704;2023-09-19T07:54:39;9.77;;;1.93;;
2860;SDS011;1438;50.922;6.704;2023-09-19T07:57:06;8.10;;;2.20;;
2860;SDS011;1438;50.922;6.704;2023-09-19T07:59:34;5.23;;;1.70;;
2860;SDS011;1438;50.922;6.704;2023-09-19T08:02:01;12.60;;;2.97;;
2860;SDS011;1438;50.922;6.704;2023-09-19T08:04:29;9.63;;;3.37;;
2860;SDS011;1438;50.922;6.704;2023-09-19T08:06:58;7.37;;;2.00;;
2860;SDS011;1438;50.922;6.704;2023-09-19T08:09:28;12.13;;;2.47;;
2860;SDS011;1438;50.922;6.704;2023-09-19T08:11:58;5.20;;;2.17;;
2860;SDS011;1438;50.922;6.704;2023-09-19T08:14:24;10.23;;;1.97;;
2860;SDS011;1438;50.922;6.704;2023-09-19T08:16:51;6.23;;;1.80;;
2860;SDS011;1438;50.922;6.704;2023-09-19T08:19:28;6.53;;;1.93;;
2860;SDS011;1438;50.922;6.704;2023-09-19T08:21:56;10.30;;;2.17;;
2860;SDS011;1438;50.922;6.704;2023-09-19T08:24:26;5.97;;;2.20;;
2860;SDS011;1438;50.922;6.704;2023-09-19T08:26:56;9.47;;;2.83;;
2860;SDS011;1438;50.922;6.704;2023-09-19T08:29:22;9.50;;;2.60;;
2860;SDS011;1438;50.922;6.704;2023-09-19T08:31:55;8.47;;;1.83;;
2860;SDS011;1438;50.922;6.704;2023-09-19T08:34:24;7.20;;;2.10;;
2860;SDS011;1438;50.922;6.704;2023-09-19T08:36:50;7.20;;;2.10;;
2860;SDS011;1438;50.922;6.704;2023-09-19T08:39:18;8.40;;;2.33;;
2860;SDS011;1438;50.922;6.704;2023-09-19T08:41:44;5.43;;;2.13;;
2860;SDS011;1438;50.922;6.704;2023-09-19T08:44:10;10.90;;;3.00;;
2860;SDS011;1438;50.922;6.704;2023-09-19T08:46:35;6.33;;;2.03;;
2860;SDS011;1438;50.922;6.704;2023-09-19T08:52:28;3.37;;;1.40;;
2860;SDS011;1438;50.922;6.704;2023-09-19T08:55:19;6.37;;;1.70;;
2860;SDS011;1438;50.922;6.704;2023-09-19T08:57:52;6.00;;;2.00;;
2860;SDS011;1438;50.922;6.704;2023-09-19T09:00:27;5.23;;;2.07;;
2860;SDS011;1438;50.922;6.704;2023-09-19T09:02:55;7.47;;;2.30;;
2860;SDS011;1438;50.922;6.704;2023-09-19T09:05:23;5.90;;;2.17;;
2860;SDS011;1438;50.922;6.704;2023-09-19T09:07:49;3.97;;;1.70;;
2860;SDS011;1438;50.922;6.704;2023-09-19T09:10:21;9.60;;;2.20;;
2860;SDS011;1438;50.922;6.704;2023-09-19T09:12:51;4.53;;;1.87;;
2860;SDS011;1438;50.922;6.704;2023-09-19T09:15:19;4.87;;;1.90;;
2860;SDS011;1438;50.922;6.704;2023-09-19T09:17:48;7.53;;;2.73;;
2860;SDS011;1438;50.922;6.704;2023-09-19T09:20:15;4.70;;;2.07;;
2860;SDS011;1438;50.922;6.704;2023-09-19T09:22:53;4.20;;;1.57;;
2860;SDS011;1438;50.922;6.704;2023-09-19T09:25:20;5.90;;;1.70;;
2860;SDS011;1438;50.922;6.704;2023-09-19T09:28:00;8.53;;;1.90;;
2860;SDS011;1438;50.922;6.704;2023-09-19T09:30:33;4.70;;;1.80;;
2860;SDS011;1438;50.922;6.704;2023-09-19T09:33:13;7.03;;;1.80;;
2860;SDS011;1438;50.922;6.704;2023-09-19T09:38:21;7.83;;;1.70;;
2860;SDS011;1438;50.922;6.704;2023-09-19T09:40:53;3.50;;;1.90;;
2860;SDS011;1438;50.922;6.704;2023-09-19T09:43:34;5.47;;;1.70;;
2860;SDS011;1438;50.922;6.704;2023-09-19T09:51:43;6.77;;;1.80;;
2860;SDS011;1438;50.922;6.704;2023-09-19T09:54:16;5.13;;;1.87;;
2860;SDS011;1438;50.922;6.704;2023-09-19T09:56:54;4.23;;;1.90;;
2860;SDS011;1438;50.922;6.704;2023-09-19T10:02:19;6.73;;;1.83;;
2860;SDS011;1438;50.922;6.704;2023-09-19T10:04:53;4.10;;;1.77;;
2860;SDS011;1438;50.922;6.704;2023-09-19T10:07:37;9.03;;;2.20;;
2860;SDS011;1438;50.922;6.704;2023-09-19T10:10:06;6.60;;;1.90;;
2860;SDS011;1438;50.922;6.704;2023-09-19T10:12:45;7.90;;;1.90;;
2860;SDS011;1438;50.922;6.704;2023-09-19T10:15:16;7.17;;;2.03;;
2860;SDS011;1438;50.922;6.704;2023-09-19T10:17:43;7.20;;;2.47;;
2860;SDS011;1438;50.922;6.704;2023-09-19T10:20:12;4.63;;;1.80;;
2860;SDS011;1438;50.922;6.704;2023-09-19T10:22:59;7.80;;;2.17;;
2860;SDS011;1438;50.922;6.704;2023-09-19T10:25:26;4.97;;;1.63;;
2860;SDS011;1438;50.922;6.704;2023-09-19T10:28:17;5.00;;;2.13;;
2860;SDS011;1438;50.922;6.704;2023-09-19T10:30:47;4.67;;;2.13;;
2860;SDS011;1438;50.922;6.704;2023-09-19T10:33:15;8.67;;;2.03;;
2860;SDS011;1438;50.922;6.704;2023-09-19T10:35:44;3.90;;;1.97;;
2860;SDS011;1438;50.922;6.704;2023-09-19T10:38:12;5.33;;;2.03;;
2860;SDS011;1438;50.922;6.704;2023-09-19T10:40:44;6.10;;;1.80;;
2860;SDS011;1438;50.922;6.704;2023-09-19T10:43:15;3.93;;;1.80;;
2860;SDS011;1438;50.922;6.704;2023-09-19T10:45:45;5.13;;;1.90;;
2860;SDS011;1438;50.922;6.704;2023-09-19T10:48:14;3.90;;;1.80;;
2860;SDS011;1438;50.922;6.704;2023-09-19T10:50:45;6.90;;;2.00;;
2860;SDS011;1438;50.922;6.704;2023-09-19T10:53:14;3.07;;;1.83;;
2860;SDS011;1438;50.922;6.704;2023-09-19T10:55:42;4.33;;;1.87;;
2860;SDS011;1438;50.922;6.704;2023-09-19T10:58:23;8.20;;;1.83;;
2860;SDS011;1438;50.922;6.704;2023-09-19T11:00:54;6.60;;;1.90;;
2860;SDS011;1438;50.922;6.704;2023-09-19T11:03:20;4.60;;;1.70;;
2860;SDS011;1438;50.922;6.704;2023-09-19T11:06:04;3.97;;;1.90;;
2860;SDS011;1438;50.922;6.704;2023-09-19T11:08:52;5.27;;;2.13;;
2860;SDS011;1438;50.922;6.704;2023-09-19T11:11:47;6.63;;;1.90;;
2860;SDS011;1438;50.922;6.704;2023-09-19T11:30:32;7.47;;;1.87;;
2860;SDS011;1438;50.922;6.704;2023-09-19T11:33:30;5.97;;;1.90;;
2860;SDS011;1438;50.922;6.704;2023-09-19T11:43:45;4.47;;;1.90;;
2860;SDS011;1438;50.922;6.704;2023-09-19T11:46:15;2.87;;;1.60;;
2860;SDS011;1438;50.922;6.704;2023-09-19T11:48:47;5.73;;;1.73;;
2860;SDS011;1438;50.922;6.704;2023-09-19T11:51:16;5.50;;;1.80;;
2860;SDS011;1438;50.922;6.704;2023-09-19T11:53:57;6.10;;;2.27;;
2860;SDS011;1438;50.922;6.704;2023-09-19T11:56:27;6.00;;;1.87;;
2860;SDS011;1438;50.922;6.704;2023-09-19T11:58:53;4.07;;;1.93;;
2860;SDS011;1438;50.922;6.704;2023-09-19T12:01:24;3.60;;;1.73;;
2860;SDS011;1438;50.922;6.704;2023-09-19T12:03:57;3.00;;;1.47;;
2860;SDS011;1438;50.922;6.704;2023-09-19T12:06:25;4.10;;;2.13;;
2860;SDS011;1438;50.922;6.704;2023-09-19T12:08:51;3.93;;;1.67;;
2860;SDS011;1438;50.922;6.704;2023-09-19T12:11:19;5.37;;;2.17;;
2860;SDS011;1438;50.922;6.704;2023-09-19T12:13:48;4.47;;;2.10;;
2860;SDS011;1438;50.922;6.704;2023-09-19T12:16:15;4.63;;;2.10;;
2860;SDS011;1438;50.922;6.704;2023-09-19T12:18:42;7.87;;;2.27;;
2860;SDS011;1438;50.922;6.704;2023-09-19T12:21:20;3.80;;;1.83;;
2860;SDS011;1438;50.922;6.704;2023-09-19T12:23:58;9.67;;;2.20;;
2860;SDS011;1438;50.922;6.704;2023-09-19T12:26:26;5.83;;;1.67;;
2860;SDS011;1438;50.922;6.704;2023-09-19T12:28:54;5.40;;;1.87;;
2860;SDS011;1438;50.922;6.704;2023-09-19T12:31:20;3.47;;;1.80;;
2860;SDS011;1438;50.922;6.704;2023-09-19T12:33:52;4.13;;;1.60;;
2860;SDS011;1438;50.922;6.704;2023-09-19T12:36:22;4.70;;;1.73;;
2860;SDS011;1438;50.922;6.704;2023-09-19T12:38:55;3.73;;;1.73;;
2860;SDS011;1438;50.922;6.704;2023-09-19T12:41:24;2.83;;;1.97;;
2860;SDS011;1438;50.922;6.704;2023-09-19T12:43:51;2.83;;;2.07;;
2860;SDS011;1438;50.922;6.704;2023-09-19T12:46:20;2.43;;;1.60;;
2860;SDS011;1438;50.922;6.704;2023-09-19T12:51:48;3.33;;;1.10;;
2860;SDS011;1438;50.922;6.704;2023-09-19T12:54:14;4.03;;;0.97;;
2860;SDS011;1438;50.922;6.704;2023-09-19T12:56:44;3.27;;;1.43;;
2860;SDS011;1438;50.922;6.704;2023-09-19T12:59:12;4.63;;;1.63;;
2860;SDS011;1438;50.922;6.704;2023-09-19T13:01:41;7.07;;;1.50;;
2860;SDS011;1438;50.922;6.704;2023-09-19T13:04:15;2.60;;;1.20;;
2860;SDS011;1438;50.922;6.704;2023-09-19T13:06:52;3.70;;;1.47;;
2860;SDS011;1438;50.922;6.704;2023-09-19T13:09:19;6.83;;;1.63;;
2860;SDS011;1438;50.922;6.704;2023-09-19T13:11:45;3.33;;;1.40;;
2860;SDS011;1438;50.922;6.704;2023-09-19T13:16:57;2.63;;;1.20;;
2860;SDS011;1438;50.922;6.704;2023-09-19T13:19:48;6.53;;;2.10;;
2860;SDS011;1438;50.922;6.704;2023-09-19T13:25:09;3.13;;;1.53;;
2860;SDS011;1438;50.922;6.704;2023-09-19T13:27:45;3.03;;;1.40;;
2860;SDS011;1438;50.922;6.704;2023-09-19T13:30:14;3.50;;;1.40;;
2860;SDS011;1438;50.922;6.704;2023-09-19T13:32:40;5.13;;;1.27;;
2860;SDS011;1438;50.922;6.704;2023-09-19T13:35:07;4.83;;;1.50;;
2860;SDS011;1438;50.922;6.704;2023-09-19T13:37:38;4.50;;;1.50;;
2860;SDS011;1438;50.922;6.704;2023-09-19T13:40:08;2.40;;;1.20;;
2860;SDS011;1438;50.922;6.704;2023-09-19T13:42:40;3.83;;;1.57;;
2860;SDS011;1438;50.922;6.704;2023-09-19T13:45:06;4.40;;;1.43;;
2860;SDS011;1438;50.922;6.704;2023-09-19T13:47:32;3.60;;;1.07;;
2860;SDS011;1438;50.922;6.704;2023-09-19T13:49:59;2.37;;;1.17;;
2860;SDS011;1438;50.922;6.704;2023-09-19T13:52:26;3.50;;;1.17;;
2860;SDS011;1438;50.922;6.704;2023-09-19T13:54:55;3.47;;;1.27;;
2860;SDS011;1438;50.922;6.704;2023-09-19T13:57:22;3.00;;;1.13;;
2860;SDS011;1438;50.922;6.704;2023-09-19T13:59:48;3.40;;;1.20;;
2860;SDS011;1438;50.922;6.704;2023-09-19T14:02:14;1.93;;;1.30;;
2860;SDS011;1438;50.922;6.704;2023-09-19T14:04:40;2.47;;;1.00;;
2860;SDS011;1438;50.922;6.704;2023-09-19T14:07:06;4.20;;;1.30;;
2860;SDS011;1438;50.922;6.704;2023-09-19T14:09:32;3.20;;;1.03;;
2860;SDS011;1438;50.922;6.704;2023-09-19T14:11:58;4.60;;;1.63;;
2860;SDS011;1438;50.922;6.704;2023-09-19T14:14:24;3.57;;;1.27;;
2860;SDS011;1438;50.922;6.704;2023-09-19T14:16:50;2.63;;;1.20;;
2860;SDS011;1438;50.922;6.704;2023-09-19T14:19:17;4.77;;;1.30;;
2860;SDS011;1438;50.922;6.704;2023-09-19T14:21:43;1.97;;;1.00;;
2860;SDS011;1438;50.922;6.704;2023-09-19T14:24:09;4.00;;;1.13;;
2860;SDS011;1438;50.922;6.704;2023-09-19T14:26:36;2.80;;;1.30;;
2860;SDS011;1438;50.922;6.704;2023-09-19T14:29:02;2.27;;;0.77;;
2860;SDS011;1438;50.922;6.704;2023-09-19T14:31:28;3.33;;;1.23;;
2860;SDS011;1438;50.922;6.704;2023-09-19T14:33:55;1.53;;;0.83;;
2860;SDS011;1438;50.922;6.704;2023-09-19T14:36:24;1.53;;;0.80;;
2860;SDS011;1438;50.922;6.704;2023-09-19T14:38:53;4.83;;;1.40;;
2860;SDS011;1438;50.922;6.704;2023-09-19T14:41:20;1.60;;;0.97;;
2860;SDS011;1438;50.922;6.704;2023-09-19T14:43:46;1.00;;;0.60;;
2860;SDS011;1438;50.922;6.704;2023-09-19T14:46:11;2.40;;;1.07;;
2860;SDS011;1438;50.922;6.704;2023-09-19T14:48:37;2.43;;;1.10;;
2860;SDS011;1438;50.922;6.704;2023-09-19T14:51:03;1.63;;;1.00;;
2860;SDS011;1438;50.922;6.704;2023-09-19T14:53:30;3.00;;;1.20;;
2860;SDS011;1438;50.922;6.704;2023-09-19T14:56:00;2.70;;;1.13;;
2860;SDS011;1438;50.922;6.704;2023-09-19T14:58:28;2.17;;;1.10;;
2860;SDS011;1438;50.922;6.704;2023-09-19T15:01:01;2.70;;;1.20;;
2860;SDS011;1438;50.922;6.704;2023-09-19T15:03:36;3.60;;;1.00;;
2860;SDS011;1438;50.922;6.704;2023-09-19T15:06:05;2.33;;;1.20;;
2860;SDS011;1438;50.922;6.704;2023-09-19T15:08:35;4.57;;;1.67;;
2860;SDS011;1438;50.922;6.704;2023-09-19T15:11:09;1.43;;;0.93;;
2860;SDS011;1438;50.922;6.704;2023-09-19T15:13:35;1.87;;;1.00;;
2860;SDS011;1438;50.922;6.704;2023-09-19T15:16:02;1.83;;;1.00;;
2860;SDS011;1438;50.922;6.704;2023-09-19T15:18:28;3.30;;;1.20;;
2860;SDS011;1438;50.922;6.704;2023-09-19T15:21:02;3.77;;;1.17;;
2860;SDS011;1438;50.922;6.704;2023-09-19T15:23:29;2.73;;;1.03;;
2860;SDS011;1438;50.922;6.704;2023-09-19T15:25:56;3.40;;;1.10;;
2860;SDS011;1438;50.922;6.704;2023-09-19T15:28:22;2.50;;;0.90;;
2860;SDS011;1438;50.922;6.704;2023-09-19T15:30:48;2.00;;;1.20;;
2860;SDS011;1438;50.922;6.704;2023-09-19T15:33:15;2.00;;;1.27;;
2860;SDS011;1438;50.922;6.704;2023-09-19T15:35:40;2.80;;;0.93;;
2860;SDS011;1438;50.922;6.704;2023-09-19T15:38:07;5.33;;;1.30;;
2860;SDS011;1438;50.922;6.704;2023-09-19T15:40:32;2.23;;;0.90;;
2860;SDS011;1438;50.922;6.704;2023-09-19T15:42:58;2.80;;;1.10;;
2860;SDS011;1438;50.922;6.704;2023-09-19T15:45:25;1.10;;;0.80;;
2860;SDS011;1438;50.922;6.704;2023-09-19T15:47:51;2.60;;;1.13;;
2860;SDS011;1438;50.922;6.704;2023-09-19T15:50:16;2.87;;;1.30;;
2860;SDS011;1438;50.922;6.704;2023-09-19T15:52:42;2.13;;;1.00;;
2860;SDS011;1438;50.922;6.704;2023-09-19T15:55:08;2.20;;;0.93;;
2860;SDS011;1438;50.922;6.704;2023-09-19T15:57:38;3.10;;;1.13;;
2860;SDS011;1438;50.922;6.704;2023-09-19T16:00:05;1.87;;;0.90;;
2860;SDS011;1438;50.922;6.704;2023-09-19T16:02:37;3.53;;;1.33;;
2860;SDS011;1438;50.922;6.704;2023-09-19T16:05:03;3.40;;;1.00;;
2860;SDS011;1438;50.922;6.704;2023-09-19T16:07:30;3.50;;;1.10;;
2860;SDS011;1438;50.922;6.704;2023-09-19T16:09:56;2.87;;;1.10;;
2860;SDS011;1438;50.922;6.704;2023-09-19T16:12:24;3.50;;;1.37;;
2860;SDS011;1438;50.922;6.704;2023-09-19T16:14:49;3.03;;;1.40;;
2860;SDS011;1438;50.922;6.704;2023-09-19T16:17:15;3.43;;;1.07;;
2860;SDS011;1438;50.922;6.704;2023-09-19T16:19:40;3.53;;;1.40;;
2860;SDS011;1438;50.922;6.704;2023-09-19T16:22:08;1.00;;;0.80;;
2860;SDS011;1438;50.922;6.704;2023-09-19T16:24:34;1.73;;;1.00;;
2860;SDS011;1438;50.922;6.704;2023-09-19T16:27:00;5.20;;;1.13;;
2860;SDS011;1438;50.922;6.704;2023-09-19T16:29:26;2.10;;;0.70;;
2860;SDS011;1438;50.922;6.704;2023-09-19T16:31:52;3.17;;;1.03;;